Flight Track Log - Related Links

Times and Time Zones

All times are in EDT time to prevent confusion due to time zone crossing. See the JTA271 flight status page for this flight to view local times or setup timezone preferences in your user account.


Time Position Orientation Groundspeed Altitude Reporting Facility
EDT Latitude Longitude Course Direction KTS MPH feet Rate Location/Type
Sun 08:15:00 PM 34.1637 134.9719 221° Southwest  Level Estimated
Sun 08:16:00 PM 34.0757 134.8815 220° Southwest  Level Estimated
Sun 08:17:00 PM 33.9876 134.7914 220° Southwest  Level Estimated
Sun 08:18:00 PM 33.8994 134.7014 220° Southwest  Level Estimated
Sun 08:19:00 PM 33.8112 134.6116 220° Southwest  Level Estimated
Sun 08:20:00 PM 33.7230 134.5220 220° Southwest  Level Estimated
Sun 08:21:00 PM 33.6336 134.4316 220° Southwest  Level Estimated
Sun 08:22:00 PM 33.5443 134.3413 220° Southwest  Level Estimated
Sun 08:23:00 PM 33.4548 134.2513 220° Southwest  Level Estimated
Sun 08:24:00 PM 33.3653 134.1614 220° Southwest  Level Estimated
Sun 08:25:00 PM 33.2757 134.0718 220° Southwest  Level Estimated
Sun 08:26:00 PM 33.1861 133.9823 220° Southwest  Level Estimated
Sun 08:27:00 PM 33.0964 133.8930 220° Southwest  Level Estimated
Sun 08:28:00 PM 33.0066 133.8038 220° Southwest  Level Estimated
Sun 08:29:00 PM 32.9168 133.7149 220° Southwest  Level Estimated
Sun 08:30:00 PM 32.8269 133.6261 220° Southwest  Level Estimated
Sun 08:31:00 PM 32.7369 133.5376 220° Southwest  Level Estimated
Sun 08:32:00 PM 32.6469 133.4492 220° Southwest  Level Estimated
Sun 08:33:00 PM 32.5568 133.3609 220° Southwest  Level Estimated
Sun 08:34:00 PM 32.4667 133.2729 220° Southwest  Level Estimated
Sun 08:35:00 PM 32.3765 133.1850 219° Southwest  Level Estimated
Sun 08:36:00 PM 32.2862 133.0973 219° Southwest  Level Estimated
Sun 08:37:00 PM 32.1969 133.0108 219° Southwest  Level Estimated
Sun 08:38:00 PM 32.1075 132.9244 219° Southwest  Level Estimated
Sun 08:39:00 PM 32.0180 132.8382 219° Southwest  Level Estimated
Sun 08:40:00 PM 31.9285 132.7521 219° Southwest  Level Estimated
Sun 08:41:00 PM 31.8389 132.6662 219° Southwest  Level Estimated
Sun 08:42:00 PM 31.7493 132.5805 219° Southwest  Level Estimated
Sun 08:43:00 PM 31.6596 132.4949 219° Southwest  Level Estimated
Sun 08:44:00 PM 31.5699 132.4096 219° Southwest  Level Estimated
Sun 08:45:00 PM 31.4801 132.3243 219° Southwest  Level Estimated
Sun 08:46:00 PM 31.3902 132.2393 219° Southwest  Level Estimated
Sun 08:47:00 PM 31.3003 132.1544 219° Southwest  Level Estimated
Sun 08:48:00 PM 31.2104 132.0696 219° Southwest  Level Estimated
Sun 08:49:00 PM 31.1203 131.9851 219° Southwest  Level Estimated
Sun 08:50:00 PM 31.0303 131.9007 219° Southwest  Level Estimated
Sun 08:51:00 PM 30.9391 131.8155 219° Southwest  Level Estimated
Sun 08:52:00 PM 30.8479 131.7304 219° Southwest  Level Estimated
Sun 08:53:00 PM 30.7567 131.6456 219° Southwest  Level Estimated
Sun 08:54:00 PM 30.6654 131.5609 219° Southwest  Level Estimated
Sun 08:55:00 PM 30.5741 131.4763 219° Southwest  Level Estimated
Sun 08:56:00 PM 30.4827 131.3919 219° Southwest  Level Estimated
Sun 08:57:00 PM 30.3912 131.3077 218° Southwest  Level Estimated
Sun 08:58:00 PM 30.2997 131.2236 218° Southwest  Level Estimated
Sun 08:59:00 PM 30.2081 131.1397 218° Southwest  Level Estimated
Sun 09:00:00 PM 30.1165 131.0559 218° Southwest  Level Estimated
Sun 09:01:00 PM 30.0248 130.9723 218° Southwest  Level Estimated
Sun 09:02:00 PM 29.9331 130.8889 218° Southwest  Level Estimated
Sun 09:03:00 PM 29.8413 130.8056 218° Southwest  Level Estimated
Sun 09:04:00 PM 29.7495 130.7225 218° Southwest  Level Estimated
Sun 09:05:00 PM 29.6576 130.6395 218° Southwest  Level Estimated
Sun 09:06:00 PM 29.5656 130.5566 218° Southwest  Level Estimated
Sun 09:07:00 PM 29.4736 130.4739 218° Southwest  Level Estimated
Sun 09:08:00 PM 29.3816 130.3914 218° Southwest  Level Estimated
Sun 09:09:00 PM 29.2895 130.3090 218° Southwest  Level Estimated
Sun 09:10:00 PM 29.1994 130.2286 218° Southwest  Level Estimated
Sun 09:11:00 PM 29.1092 130.1483 218° Southwest  Level Estimated
Sun 09:12:00 PM 29.0190 130.0681 218° Southwest  Level Estimated
Sun 09:13:00 PM 28.9287 129.9881 218° Southwest  Level Estimated
Sun 09:14:00 PM 28.8384 129.9082 218° Southwest  Level Estimated
Sun 09:15:00 PM 28.7480 129.8284 218° Southwest  Level Estimated
Sun 09:16:00 PM 28.6576 129.7488 218° Southwest  Level Estimated
Sun 09:17:00 PM 28.5671 129.6693 218° Southwest  Level Estimated
Sun 09:18:00 PM 28.4766 129.5900 218° Southwest  Level Estimated
Sun 09:19:00 PM 28.3860 129.5108 218° Southwest  Level Estimated
Sun 09:20:00 PM 28.2954 129.4317 218° Southwest  Level Estimated
Sun 09:21:00 PM 28.2048 129.3528 218° Southwest  Level Estimated
Sun 09:22:00 PM 28.1141 129.2740 217° Southwest  Level Estimated
Sun 09:23:00 PM 28.0233 129.1953 217° Southwest  Level Estimated
Sun 09:24:00 PM 27.9326 129.1167 217° Southwest  Level Estimated
Sun 09:25:00 PM 27.8417 129.0383 217° Southwest  Level Estimated
Sun 09:26:00 PM 27.7509 128.9601 217° Southwest  Level Estimated
Sun 09:27:00 PM 27.6599 128.8819 217° Southwest  Level Estimated
Sun 09:28:00 PM 27.5690 128.8039 217° Southwest  Level Estimated
Sun 09:29:00 PM 27.4780 128.7260 217° Southwest  Level Estimated
Sun 09:30:00 PM 27.3869 128.6483 217° Southwest  Level Estimated
Sun 09:31:00 PM 27.2958 128.5707 217° Southwest  Level Estimated
Sun 09:32:00 PM 27.2047 128.4932 217° Southwest  Level Estimated
Sun 09:33:00 PM 27.1135 128.4158 217° Southwest  Level Estimated
Sun 09:34:00 PM 27.0223 128.3385 217° Southwest  Level Estimated
Sun 09:35:00 PM 26.9310 128.2614 217° Southwest  Level Estimated
Sun 09:36:00 PM 26.8397 128.1844 217° Southwest  Level Estimated
Sun 09:37:00 PM 26.7484 128.1076 217° Southwest  Level Estimated
Sun 09:38:00 PM 26.6570 128.0308 217° Southwest  Level Estimated
Sun 09:39:00 PM 26.5656 127.9542 217° Southwest  Level Estimated
Sun 09:40:00 PM 26.4741 127.8777 217° Southwest  Level Estimated
Sun 09:41:00 PM 26.3826 127.8013 217° Southwest  Level Estimated
Sun 09:42:00 PM 26.2910 127.7250 217° Southwest  Level Estimated
Sun 09:43:00 PM 26.1994 127.6489 217° Southwest  Level Estimated
Sun 09:44:00 PM 26.1958 127.6459 217° Southwest  Level Estimated
Sun 09:45:00 PM 26.1958 127.6459 347° North  Level Estimated
Sun 09:46:00 PM 26.1958 127.6459 347° North  Level Estimated
Sun 09:47:00 PM 26.1958 127.6459 347° North  Level Estimated
Sun 09:48:00 PM 26.1958 127.6459 347° North  Level Estimated
Sun 09:49:00 PM 26.1958 127.6459 347° North  Level Estimated
Sun 09:50:00 PM 26.1958 127.6459 347° North  Level Estimated
Sun 09:51:00 PM 26.1958 127.6459 347° North  Level Estimated
Sun 09:52:00 PM 26.1958 127.6459 347° North  Level Estimated
Sun 09:53:00 PM 26.1958 127.6459 347° North  Level Estimated
Sun 09:54:00 PM 26.1958 127.6459 347° North  Level Estimated
Sun 09:55:00 PM 26.1958 127.6459 347° North  Level Estimated
Sun 09:56:00 PM 26.1958 127.6459 347° North  Level Estimated
Sun 09:57:00 PM 26.1958 127.6459 347° North  Level Estimated
Sun 09:58:00 PM 26.1958 127.6459 347° North  Level Estimated

Login

Don't have an account? Register now (free) for customized features, flight alerts, and more!